KMOD/MOD METAR and TAF weather

Enter ICAO airport designator
Station Type Date Time Source
KMOD METAR 2018/12/15 01:53 UTC NOAA

KMOD 150153Z 12005KT 8SM CLR 12/07 A3010 RMK AO2 SLP192 T01220067


Station Type Date Time Source
KMOD Decoded METAR 2018/12/15 01:53 UTC NOAA

MODESTO CITY CO SHAM FLD, CA, United States (KMOD) 37-37N 120-57W 29M
Dec 14, 2018 - 08:53 PM EST / 2018.12.15 0153 UTC
Wind: from the ESE (120 degrees) at 6 MPH (5 KT):0
Visibility: 8 mile(s):0
Sky conditions: clear
Temperature: 54.0 F (12.2 C)
Dew Point: 44.1 F (6.7 C)
Relative Humidity: 69%
Pressure (altimeter): 30.1 in. Hg (1019 hPa)
ob: KMOD 150153Z 12005KT 8SM CLR 12/07 A3010 RMK AO2 SLP192 T01220067
cycle: 2

Station Type Date Time Source
KMOD TAF 2018/12/15 03:42 UTC NOAA

TAF TAF
AMD KMOD 150237Z 1503/1524 13005KT P6SM VCSH FEW030 OVC050
FM150800 VRB05KT P6SM OVC050


Example: see airport list